sensor_id;sensor_type;location;lat;lon;timestamp;temperature;humidity
76750;DHT22;66447;35.844;14.468;2023-05-07T00:09:47;19.69;118.99
76750;DHT22;66447;35.844;14.468;2023-05-07T00:24:51;20.60;118.99
76750;DHT22;66447;35.844;14.468;2023-05-07T00:39:52;20.21;118.99
76750;DHT22;66447;35.844;14.468;2023-05-07T00:54:53;20.21;118.99
76750;DHT22;66447;35.844;14.468;2023-05-07T01:09:55;19.21;118.99
76750;DHT22;66447;35.844;14.468;2023-05-07T01:24:57;19.89;118.99
76750;DHT22;66447;35.844;14.468;2023-05-07T01:40:01;19.14;118.99
76750;DHT22;66447;35.844;14.468;2023-05-07T01:55:03;18.99;118.99
76750;DHT22;66447;35.844;14.468;2023-05-07T02:10:04;19.87;118.99
76750;DHT22;66447;35.844;14.468;2023-05-07T02:25:06;19.97;118.99
76750;DHT22;66447;35.844;14.468;2023-05-07T02:40:08;20.53;118.99
76750;DHT22;66447;35.844;14.468;2023-05-07T02:55:09;20.31;118.99
76750;DHT22;66447;35.844;14.468;2023-05-07T03:10:11;20.04;118.99
76750;DHT22;66447;35.844;14.468;2023-05-07T03:25:12;19.62;118.99
76750;DHT22;66447;35.844;14.468;2023-05-07T03:40:13;20.09;118.99
76750;DHT22;66447;35.844;14.468;2023-05-07T03:55:14;19.76;118.99
76750;DHT22;66447;35.844;14.468;2023-05-07T04:10:15;20.18;118.99
76750;DHT22;66447;35.844;14.468;2023-05-07T04:25:17;20.50;118.99
76750;DHT22;66447;35.844;14.468;2023-05-07T04:40:18;20.91;118.99
76750;DHT22;66447;35.844;14.468;2023-05-07T04:55:19;20.56;118.99
76750;DHT22;66447;35.844;14.468;2023-05-07T05:10:22;21.30;118.99
76750;DHT22;66447;35.844;14.468;2023-05-07T05:25:23;22.11;118.99
76750;DHT22;66447;35.844;14.468;2023-05-07T05:40:24;22.29;118.99
76750;DHT22;66447;35.844;14.468;2023-05-07T05:55:26;23.37;118.99
76750;DHT22;66447;35.844;14.468;2023-05-07T06:10:27;23.99;118.99
76750;DHT22;66447;35.844;14.468;2023-05-07T06:25:29;25.06;118.99
76750;DHT22;66447;35.844;14.468;2023-05-07T06:40:30;24.94;118.99
76750;DHT22;66447;35.844;14.468;2023-05-07T06:55:31;25.50;118.99
76750;DHT22;66447;35.844;14.468;2023-05-07T07:10:32;25.94;118.99
76750;DHT22;66447;35.844;14.468;2023-05-07T07:25:34;27.21;118.99
76750;DHT22;66447;35.844;14.468;2023-05-07T07:40:35;26.94;118.02
76750;DHT22;66447;35.844;14.468;2023-05-07T07:55:39;27.37;106.06
76750;DHT22;66447;35.844;14.468;2023-05-07T08:10:41;27.68;107.81
76750;DHT22;66447;35.844;14.468;2023-05-07T08:25:43;28.34;105.72
76750;DHT22;66447;35.844;14.468;2023-05-07T08:40:44;26.94;118.99
76750;DHT22;66447;35.844;14.468;2023-05-07T08:55:46;28.08;103.39
76750;DHT22;66447;35.844;14.468;2023-05-07T09:10:48;28.79;101.19
76750;DHT22;66447;35.844;14.468;2023-05-07T09:25:49;28.21;101.15
76750;DHT22;66447;35.844;14.468;2023-05-07T09:41:05;27.46;113.97
76750;DHT22;66447;35.844;14.468;2023-05-07T09:56:07;27.16;107.43
76750;DHT22;66447;35.844;14.468;2023-05-07T10:11:09;27.57;118.29
76750;DHT22;66447;35.844;14.468;2023-05-07T10:26:11;28.50;107.63
76750;DHT22;66447;35.844;14.468;2023-05-07T10:41:14;27.88;99.16
76750;DHT22;66447;35.844;14.468;2023-05-07T11:11:18;28.35;97.95
76750;DHT22;66447;35.844;14.468;2023-05-07T11:26:20;28.20;96.74
76750;DHT22;66447;35.844;14.468;2023-05-07T11:41:22;28.85;92.21
76750;DHT22;66447;35.844;14.468;2023-05-07T11:56:23;28.83;81.63
76750;DHT22;66447;35.844;14.468;2023-05-07T12:11:25;30.01;57.04
76750;DHT22;66447;35.844;14.468;2023-05-07T12:26:27;30.94;51.56
76750;DHT22;66447;35.844;14.468;2023-05-07T12:41:28;28.21;68.92
76750;DHT22;66447;35.844;14.468;2023-05-07T12:56:35;28.14;80.88
76750;DHT22;66447;35.844;14.468;2023-05-07T13:11:37;26.53;118.99
76750;DHT22;66447;35.844;14.468;2023-05-07T13:26:39;25.82;118.99
76750;DHT22;66447;35.844;14.468;2023-05-07T13:41:40;26.64;118.99
76750;DHT22;66447;35.844;14.468;2023-05-07T13:56:42;26.91;118.99
76750;DHT22;66447;35.844;14.468;2023-05-07T14:11:43;27.38;118.99
76750;DHT22;66447;35.844;14.468;2023-05-07T14:26:45;25.61;118.99
76750;DHT22;66447;35.844;14.468;2023-05-07T14:41:46;25.46;118.99
76750;DHT22;66447;35.844;14.468;2023-05-07T14:56:48;24.55;118.99
76750;DHT22;66447;35.844;14.468;2023-05-07T15:11:49;24.20;118.99
76750;DHT22;66447;35.844;14.468;2023-05-07T15:26:54;23.66;118.99
76750;DHT22;66447;35.844;14.468;2023-05-07T15:41:56;22.98;118.99
76750;DHT22;66447;35.844;14.468;2023-05-07T15:56:58;23.51;118.99
76750;DHT22;66447;35.844;14.468;2023-05-07T16:11:59;24.32;118.99
76750;DHT22;66447;35.844;14.468;2023-05-07T16:27:00;23.28;118.99
76750;DHT22;66447;35.844;14.468;2023-05-07T16:42:02;23.71;118.99
76750;DHT22;66447;35.844;14.468;2023-05-07T16:57:04;23.40;118.99
76750;DHT22;66447;35.844;14.468;2023-05-07T17:12:05;22.10;118.99
76750;DHT22;66447;35.844;14.468;2023-05-07T17:27:07;21.69;118.99
76750;DHT22;66447;35.844;14.468;2023-05-07T17:42:08;21.95;118.99
76750;DHT22;66447;35.844;14.468;2023-05-07T17:57:09;21.50;118.99
76750;DHT22;66447;35.844;14.468;2023-05-07T18:12:11;21.01;118.99
76750;DHT22;66447;35.844;14.468;2023-05-07T18:27:12;20.94;118.99
76750;DHT22;66447;35.844;14.468;2023-05-07T18:42:13;21.44;118.99
76750;DHT22;66447;35.844;14.468;2023-05-07T18:57:14;21.35;118.99
76750;DHT22;66447;35.844;14.468;2023-05-07T19:12:16;20.76;118.99
76750;DHT22;66447;35.844;14.468;2023-05-07T19:27:17;20.49;118.99
76750;DHT22;66447;35.844;14.468;2023-05-07T19:42:18;20.75;118.99
76750;DHT22;66447;35.844;14.468;2023-05-07T19:57:19;20.75;118.99
76750;DHT22;66447;35.844;14.468;2023-05-07T20:12:21;20.62;118.99
76750;DHT22;66447;35.844;14.468;2023-05-07T20:27:22;20.17;118.99
76750;DHT22;66447;35.844;14.468;2023-05-07T20:42:24;20.24;118.99
76750;DHT22;66447;35.844;14.468;2023-05-07T20:57:26;19.76;118.99
76750;DHT22;66447;35.844;14.468;2023-05-07T21:12:27;20.22;118.99
76750;DHT22;66447;35.844;14.468;2023-05-07T21:27:28;19.98;118.99
76750;DHT22;66447;35.844;14.468;2023-05-07T21:42:30;19.55;118.99
76750;DHT22;66447;35.844;14.468;2023-05-07T21:57:31;20.42;118.99
76750;DHT22;66447;35.844;14.468;2023-05-07T22:12:33;20.19;118.99
76750;DHT22;66447;35.844;14.468;2023-05-07T22:27:34;20.03;118.99
76750;DHT22;66447;35.844;14.468;2023-05-07T22:42:35;19.95;118.99
76750;DHT22;66447;35.844;14.468;2023-05-07T22:57:37;20.28;118.99
76750;DHT22;66447;35.844;14.468;2023-05-07T23:12:38;19.94;118.99
76750;DHT22;66447;35.844;14.468;2023-05-07T23:27:39;20.15;118.99
76750;DHT22;66447;35.844;14.468;2023-05-07T23:42:40;20.14;118.99
76750;DHT22;66447;35.844;14.468;2023-05-07T23:57:41;20.10;118.99
